Giurgiu, Romania
Current Conditions -  °F | °C
As of 5:30 AM on Saturday 01 Nov 2014 (Local Time) from LRBS Reporting Station
Haze Haze  
Wind Chill: 43°   Ceiling: 600
Heat Index: 43°   Visibility: 1.8mi
Dew Point: 41°   Wind: 0mph
Humidity: 93%   Direction: NA
Pressure: 30.27"   Gusts: NA
Location:  43.9°N, 25.97°E
Report Text: LRBS 010230Z 00000KT 3000 BR BKN006 06/05 Q1025 NOSIG
Loading
Personal Weather Stations






























Interactive Weather Map
Tropical Storm Tracking
New forecast layout! Learn more

10-Day Weather Forecast

Advertisements
Track Severe Weather on mobile